Drake Field
KFYV : now visible

Airfield :











YOU CAN JOIN US ON...

 
LOGIN :

Register | Disclaimer

   EN    FR    IT 

 









Legend :    VFR   Marginal VFR   IFR   Intensive IFR   Very Intensive IFR
Visi :
Ceiling :
>= 8 km
>= 3000ft
5 to 8 km
1000 to 3000 ft
1500m to 5 km
500 to 1000 ft
800 to 1500m
200 to 500 ft
< 800m
< 200 ft
Symbols :   Thunderstorms  Fog  Heavy snow  Heavy precipitations  Wind > 20 kt







- Airport Elevation : 1251 ft
- IATA code : FYV


KFYV - Drake Field

CURRENT METAR :
  • 201553Z 15008G18KT 10SM -RA SCT021 BKN042 OVC060 22/20 A3010 RMK AO2 SLP179 P0001 T02170200

EXPIRED METARs :
  • 201504Z 16010G19KT 10SM -RA BKN020 BKN055 OVC080 22/20 A3009 RMK AO2 P0000 T02220200
  • 201353Z 16013G23KT 10SM -RA FEW021 BKN120 23/19 A3006 RMK AO2 PK WND 17026/1332 RAB33 SLP167 P0000 T02280194
  • 201326Z 17011G18KT 10SM SCT024 BKN030 BKN036 23/19 A3005 RMK AO2 T02330189
  • 201319Z 17010KT 10SM BKN025 BKN032 OVC120 23/19 A3006 RMK AO2 T02330189

TAF KFYV
Valid from the 20 at 14:00 until the 21 at 12:00 UTC


201405Z 2014/2112 16012G22KT P6SM -SHRA OVC025
TEMPO 2014/2018 2SM -RA BR OVC008
FM201800 16012KT 4SM -SHRA OVC007
TEMPO 2020/2024 2SM TSRA OVC004CB
FM210000 16010KT P6SM OVC007
No reported NOTAMs for that airfield.



MET'MAP, your aeronautical weather chart ! - Copyright ORBIFLY December 2007 - Disclaimer

ORBIFLY MET'MAP TEAM :

Programming & Development : Alexandra Zaïnal
Concept & Development : Baudouin d'Aumeries
Co-Development & Prog : Marc-Olivier Méhu
Technical & hardware support : Manuel Goepfert

Contact : metmap@orbifly.com




SOURCES & CREDITS :

   NOAA       Earth
Advisory